createdAt,value
2023-04-18T00:00:52.459Z,89
2023-04-18T00:01:59.540Z,89
2023-04-18T00:03:06.664Z,89
2023-04-18T00:04:14.079Z,90
2023-04-18T00:05:20.980Z,89
2023-04-18T00:06:29.621Z,89
2023-04-18T00:07:36.498Z,89
2023-04-18T00:08:43.544Z,90
2023-04-18T00:09:50.445Z,89
2023-04-18T00:10:57.294Z,90
2023-04-18T00:12:06.159Z,89
2023-04-18T00:13:13.109Z,89
2023-04-18T00:14:23.073Z,89
2023-04-18T00:15:29.944Z,89
2023-04-18T00:16:36.855Z,89
2023-04-18T00:17:43.657Z,89
2023-04-18T00:18:50.573Z,89
2023-04-18T00:19:57.436Z,89
2023-04-18T00:21:04.386Z,89
2023-04-18T00:22:11.429Z,88
2023-04-18T00:23:18.421Z,88
2023-04-18T00:24:25.293Z,88
2023-04-18T00:25:36.486Z,88
2023-04-18T00:26:43.333Z,88
2023-04-18T00:27:50.196Z,88
2023-04-18T00:28:56.996Z,89
2023-04-18T00:30:03.980Z,89
2023-04-18T00:31:11.145Z,88
2023-04-18T00:32:18.689Z,88
2023-04-18T00:33:25.449Z,89
2023-04-18T00:34:32.373Z,89
2023-04-18T00:35:40.111Z,88
2023-04-18T00:36:47.817Z,89
2023-04-18T00:37:54.624Z,88
2023-04-18T00:39:01.472Z,88
2023-04-18T00:40:08.439Z,90
2023-04-18T00:41:15.513Z,89
2023-04-18T00:42:22.567Z,89
2023-04-18T00:43:29.472Z,89
2023-04-18T00:44:36.257Z,88
2023-04-18T00:45:43.141Z,89
2023-04-18T00:46:50.810Z,89
2023-04-18T00:47:57.600Z,89
2023-04-18T00:49:04.547Z,89
2023-04-18T00:50:11.630Z,88
2023-04-18T00:51:18.468Z,89
2023-04-18T00:52:25.290Z,89
2023-04-18T00:53:32.246Z,89
2023-04-18T00:54:39.274Z,89
2023-04-18T00:55:46.250Z,89
2023-04-18T00:56:56.061Z,89
2023-04-18T00:58:02.951Z,89
2023-04-18T00:59:09.807Z,89
2023-04-18T01:00:17.612Z,89
2023-04-18T01:01:24.513Z,89
2023-04-18T01:02:32.580Z,89
2023-04-18T01:03:42.306Z,89
2023-04-18T01:04:49.022Z,89
2023-04-18T01:05:57.383Z,89
2023-04-18T01:07:04.304Z,89
2023-04-18T01:08:11.194Z,89
2023-04-18T01:09:18.134Z,89
2023-04-18T01:10:25.048Z,89
2023-04-18T01:11:31.982Z,89
2023-04-18T01:12:39.810Z,89
2023-04-18T01:13:46.728Z,89
2023-04-18T01:15:01.512Z,89
2023-04-18T01:16:10.594Z,89
2023-04-18T01:17:17.438Z,89
2023-04-18T01:18:24.334Z,89
2023-04-18T01:19:31.219Z,89
2023-04-18T01:20:39.144Z,89
2023-04-18T01:21:50.090Z,89
2023-04-18T01:22:56.968Z,89
2023-04-18T01:24:03.786Z,89
2023-04-18T01:25:10.835Z,89
2023-04-18T01:26:17.744Z,90
2023-04-18T01:27:25.487Z,90
2023-04-18T01:28:32.447Z,89
2023-04-18T01:29:39.377Z,90
2023-04-18T01:30:46.370Z,89
2023-04-18T01:31:53.559Z,89
2023-04-18T01:33:01.482Z,89
2023-04-18T01:34:08.274Z,89
2023-04-18T01:35:15.291Z,89
2023-04-18T01:36:22.202Z,89
2023-04-18T01:37:32.021Z,89
2023-04-18T01:38:38.990Z,89
2023-04-18T01:39:45.833Z,89
2023-04-18T01:40:52.767Z,89
2023-04-18T01:41:59.673Z,90
2023-04-18T01:43:06.636Z,89
2023-04-18T01:44:13.785Z,90
2023-04-18T01:45:20.327Z,89
2023-04-18T01:46:27.277Z,89
2023-04-18T01:47:34.944Z,89
2023-04-18T01:48:41.917Z,89
2023-04-18T01:49:48.932Z,89
2023-04-18T01:50:55.866Z,89
2023-04-18T01:52:02.758Z,89
2023-04-18T01:53:09.699Z,89
2023-04-18T01:54:16.949Z,89
2023-04-18T01:55:23.702Z,89
2023-04-18T01:56:30.613Z,89
2023-04-18T01:57:38.257Z,89
2023-04-18T01:58:45.190Z,89
2023-04-18T01:59:52.114Z,89
2023-04-18T02:00:59.834Z,89
2023-04-18T02:02:09.560Z,89
2023-04-18T02:03:16.486Z,89
2023-04-18T02:04:24.089Z,89
2023-04-18T02:05:30.888Z,89
2023-04-18T02:06:37.686Z,89
2023-04-18T02:07:47.202Z,90
2023-04-18T02:08:54.142Z,89
2023-04-18T02:10:01.104Z,89
2023-04-18T02:11:08.101Z,89
2023-04-18T02:12:21.172Z,89
2023-04-18T02:13:28.013Z,89
2023-04-18T02:14:34.910Z,89
2023-04-18T02:15:41.776Z,89
2023-04-18T02:16:51.541Z,89
2023-04-18T02:17:58.468Z,88
2023-04-18T02:19:05.377Z,89
2023-04-18T02:20:12.868Z,88
2023-04-18T02:21:21.501Z,88
2023-04-18T02:22:28.322Z,88
2023-04-18T02:23:35.230Z,88
2023-04-18T02:24:42.342Z,89
2023-04-18T02:25:49.297Z,89
2023-04-18T02:26:56.176Z,88
2023-04-18T02:28:03.058Z,89
2023-04-18T02:29:09.919Z,89
2023-04-18T02:30:17.765Z,89
2023-04-18T02:31:25.422Z,89
2023-04-18T02:32:32.508Z,89
2023-04-18T02:33:39.323Z,89
2023-04-18T02:34:49.040Z,89
2023-04-18T02:35:57.726Z,89
2023-04-18T02:37:04.605Z,89
2023-04-18T02:38:11.424Z,89
2023-04-18T02:39:18.318Z,89
2023-04-18T02:40:25.282Z,89
2023-04-18T02:41:32.211Z,89
2023-04-18T02:42:39.101Z,89
2023-04-18T02:43:46.795Z,89
2023-04-18T02:44:53.707Z,89
2023-04-18T02:46:02.675Z,89
2023-04-18T02:47:09.518Z,89
2023-04-18T02:48:16.557Z,89
2023-04-18T02:49:23.306Z,89
2023-04-18T02:50:30.228Z,89
2023-04-18T02:51:37.154Z,89
2023-04-18T02:52:44.040Z,89
2023-04-18T02:53:51.908Z,89
2023-04-18T02:54:58.767Z,89
2023-04-18T02:56:05.665Z,89
2023-04-18T02:57:12.568Z,89
2023-04-18T02:58:19.533Z,89
2023-04-18T02:59:26.667Z,89
2023-04-18T03:00:33.577Z,89
2023-04-18T03:01:40.479Z,89
2023-04-18T03:02:47.472Z,89
2023-04-18T03:03:54.268Z,89
2023-04-18T03:05:02.144Z,89
2023-04-18T03:06:09.133Z,89
2023-04-18T03:07:16.004Z,89
2023-04-18T03:08:22.889Z,89
2023-04-18T03:09:31.204Z,89
2023-04-18T03:10:39.589Z,88
2023-04-18T03:11:46.542Z,88
2023-04-18T03:12:53.438Z,89
2023-04-18T03:14:00.336Z,88
2023-04-18T03:15:07.418Z,88
2023-04-18T03:16:18.281Z,88
2023-04-18T03:17:25.397Z,88
2023-04-18T03:18:32.417Z,89
2023-04-18T03:19:39.228Z,89
2023-04-18T03:20:46.249Z,88
2023-04-18T03:21:54.288Z,89
2023-04-18T03:23:01.180Z,88
2023-04-18T03:24:08.851Z,89
2023-04-18T03:25:17.771Z,89
2023-04-18T03:26:24.689Z,88
2023-04-18T03:27:32.459Z,89
2023-04-18T03:28:39.649Z,88
2023-04-18T03:29:46.452Z,89
2023-04-18T03:30:53.656Z,89
2023-04-18T03:32:00.568Z,89
2023-04-18T03:33:10.760Z,89
2023-04-18T03:34:17.570Z,89
2023-04-18T03:35:25.312Z,89
2023-04-18T03:36:32.211Z,89
2023-04-18T03:37:39.212Z,89
2023-04-18T03:38:46.128Z,89
2023-04-18T03:39:52.932Z,89
2023-04-18T03:41:06.551Z,89
2023-04-18T03:42:13.362Z,89
2023-04-18T03:43:20.180Z,89
2023-04-18T03:44:27.353Z,89
2023-04-18T03:45:37.329Z,89
2023-04-18T03:46:46.382Z,90
2023-04-18T03:47:54.470Z,89
2023-04-18T03:49:01.410Z,89
2023-04-18T03:50:10.853Z,89
2023-04-18T03:51:17.675Z,89
2023-04-18T03:52:30.034Z,88
2023-04-18T03:53:36.710Z,88
2023-04-18T03:54:44.471Z,88
2023-04-18T03:55:51.375Z,89
2023-04-18T03:56:58.322Z,89
2023-04-18T03:58:05.254Z,89
2023-04-18T03:59:12.095Z,89
2023-04-18T04:00:19.088Z,89
2023-04-18T04:01:26.696Z,89
2023-04-18T04:02:36.007Z,89
2023-04-18T04:03:43.054Z,89
2023-04-18T04:04:51.115Z,89
2023-04-18T04:05:57.916Z,88
2023-04-18T04:07:04.893Z,89
2023-04-18T04:08:11.791Z,89
2023-04-18T04:09:18.648Z,88
2023-04-18T04:10:25.547Z,89
2023-04-18T04:11:32.411Z,89
2023-04-18T04:12:39.364Z,89
2023-04-18T04:13:46.200Z,89
2023-04-18T04:14:54.180Z,89
2023-04-18T04:16:01.590Z,89
2023-04-18T04:17:08.535Z,89
2023-04-18T04:18:15.508Z,89
2023-04-18T04:19:22.376Z,88
2023-04-18T04:20:29.406Z,89
2023-04-18T04:21:36.306Z,89
2023-04-18T04:22:44.125Z,89
2023-04-18T04:23:51.106Z,89
2023-04-18T04:24:58.677Z,89
2023-04-18T04:26:05.501Z,89
2023-04-18T04:27:12.418Z,89
2023-04-18T04:28:20.052Z,88
2023-04-18T04:29:27.106Z,89
2023-04-18T04:30:36.571Z,89
2023-04-18T04:31:43.557Z,89
2023-04-18T04:32:52.222Z,89
2023-04-18T04:34:00.147Z,89
2023-04-18T04:35:09.906Z,89
2023-04-18T04:36:18.744Z,89
2023-04-18T04:37:23.872Z,89
2023-04-18T04:38:31.077Z,89
2023-04-18T04:39:37.721Z,89
2023-04-18T04:40:44.702Z,89
2023-04-18T04:41:51.558Z,89
2023-04-18T04:42:58.388Z,89
2023-04-18T04:44:05.244Z,90
2023-04-18T04:45:12.202Z,90
2023-04-18T04:46:19.066Z,89
2023-04-18T04:47:25.951Z,89
2023-04-18T04:48:32.779Z,89
2023-04-18T04:49:39.713Z,89
2023-04-18T04:50:47.568Z,89
2023-04-18T04:51:54.396Z,89
2023-04-18T04:53:01.235Z,89
2023-04-18T04:54:11.227Z,88
2023-04-18T04:55:18.456Z,89
2023-04-18T04:56:26.075Z,89
2023-04-18T04:57:32.966Z,89
2023-04-18T04:58:39.923Z,89
2023-04-18T04:59:46.836Z,89
2023-04-18T05:00:53.872Z,89
2023-04-18T05:02:00.568Z,89
2023-04-18T05:03:07.622Z,88
2023-04-18T05:04:14.651Z,88
2023-04-18T05:05:21.116Z,89
2023-04-18T05:06:27.914Z,88
2023-04-18T05:07:34.747Z,88
2023-04-18T05:08:41.662Z,88
2023-04-18T05:09:48.584Z,88
2023-04-18T05:10:55.434Z,88
2023-04-18T05:12:02.344Z,88
2023-04-18T05:13:09.250Z,89
2023-04-18T05:14:16.323Z,89
2023-04-18T05:15:22.941Z,88
2023-04-18T05:16:29.889Z,89
2023-04-18T05:17:38.907Z,88
2023-04-18T05:18:46.948Z,88
2023-04-18T05:19:57.146Z,88
2023-04-18T05:21:04.228Z,89
2023-04-18T05:22:11.088Z,89
2023-04-18T05:23:18.075Z,88
2023-04-18T05:24:24.916Z,88
2023-04-18T05:25:34.145Z,88
2023-04-18T05:26:41.102Z,88
2023-04-18T05:27:48.017Z,88
2023-04-18T05:28:54.843Z,88
2023-04-18T05:30:01.692Z,89
2023-04-18T05:31:09.238Z,88
2023-04-18T05:32:16.064Z,89
2023-04-18T05:33:25.324Z,89
2023-04-18T05:34:32.291Z,88
2023-04-18T05:35:39.936Z,88
2023-04-18T05:36:46.744Z,88
2023-04-18T05:37:53.703Z,88
2023-04-18T05:39:03.495Z,88
2023-04-18T05:40:10.370Z,89
2023-04-18T05:41:17.423Z,89
2023-04-18T05:42:24.291Z,88
2023-04-18T05:43:31.066Z,88
2023-04-18T05:44:38.051Z,88
2023-04-18T05:45:45.056Z,88
2023-04-18T05:46:51.960Z,88
2023-04-18T05:47:58.889Z,88
2023-04-18T05:49:05.717Z,88
2023-04-18T05:50:12.636Z,88
2023-04-18T05:51:19.485Z,88
2023-04-18T05:52:26.294Z,88
2023-04-18T05:53:33.084Z,88
2023-04-18T05:54:40.013Z,88
2023-04-18T05:55:46.883Z,88
2023-04-18T05:56:53.772Z,88
2023-04-18T05:58:00.674Z,88
2023-04-18T05:59:07.507Z,88
2023-04-18T06:00:14.436Z,87
2023-04-18T06:01:21.565Z,88
2023-04-18T06:02:28.664Z,87
2023-04-18T06:03:35.650Z,87
2023-04-18T06:04:42.746Z,87
2023-04-18T06:05:49.438Z,87
2023-04-18T06:06:56.096Z,87
2023-04-18T06:08:03.132Z,87
2023-04-18T06:09:10.012Z,87
2023-04-18T06:10:16.858Z,87
2023-04-18T06:11:23.694Z,87
2023-04-18T06:12:30.539Z,86
2023-04-18T06:13:37.666Z,87
2023-04-18T06:14:44.506Z,87
2023-04-18T06:15:51.434Z,87
2023-04-18T06:16:58.286Z,86
2023-04-18T06:18:05.190Z,87
2023-04-18T06:19:12.017Z,87
2023-04-18T06:20:18.863Z,87
2023-04-18T06:21:25.794Z,86
2023-04-18T06:22:32.651Z,86
2023-04-18T06:23:39.479Z,86
2023-04-18T06:24:46.462Z,86
2023-04-18T06:25:53.293Z,86
2023-04-18T06:27:00.185Z,86
2023-04-18T06:28:07.080Z,87
2023-04-18T06:29:14.746Z,86
2023-04-18T06:30:21.635Z,86
2023-04-18T06:31:28.807Z,86
2023-04-18T06:32:35.603Z,86
2023-04-18T06:33:42.339Z,86
2023-04-18T06:34:49.147Z,85
2023-04-18T06:35:55.976Z,86
2023-04-18T06:37:03.084Z,86
2023-04-18T06:38:09.694Z,86
2023-04-18T06:39:16.637Z,86
2023-04-18T06:40:23.485Z,86
2023-04-18T06:41:30.354Z,85
2023-04-18T06:42:37.275Z,85
2023-04-18T06:43:52.369Z,85
2023-04-18T06:44:51.033Z,84
2023-04-18T06:45:58.143Z,84
2023-04-18T06:47:05.023Z,84
2023-04-18T06:48:11.994Z,84
2023-04-18T06:49:19.720Z,83
2023-04-18T06:50:25.902Z,84
2023-04-18T06:51:32.736Z,84
2023-04-18T06:52:39.795Z,84
2023-04-18T06:53:49.488Z,83
2023-04-18T06:54:56.355Z,83
2023-04-18T06:56:03.241Z,83
2023-04-18T06:57:10.222Z,83
2023-04-18T06:58:17.115Z,83
2023-04-18T06:59:23.985Z,83
2023-04-18T07:00:31.665Z,82
2023-04-18T07:01:38.698Z,83
2023-04-18T07:02:45.620Z,82
2023-04-18T07:03:52.479Z,82
2023-04-18T07:04:59.283Z,82
2023-04-18T07:06:06.128Z,82
2023-04-18T07:07:12.999Z,82
2023-04-18T07:08:19.940Z,83
2023-04-18T07:09:26.792Z,83
2023-04-18T07:10:33.638Z,81
2023-04-18T07:11:40.619Z,82
2023-04-18T07:12:47.546Z,81
2023-04-18T07:13:54.478Z,81
2023-04-18T07:15:01.296Z,81
2023-04-18T07:16:08.850Z,82
2023-04-18T07:17:15.763Z,82
2023-04-18T07:18:30.545Z,82
2023-04-18T07:19:29.921Z,82
2023-04-18T07:20:36.980Z,83
2023-04-18T07:21:43.945Z,82
2023-04-18T07:22:50.695Z,82
2023-04-18T07:23:57.568Z,81
2023-04-18T07:25:04.458Z,80
2023-04-18T07:26:11.490Z,80
2023-04-18T07:27:18.387Z,80
2023-04-18T07:28:25.241Z,80
2023-04-18T07:29:32.117Z,80
2023-04-18T07:30:39.034Z,80
2023-04-18T07:31:45.978Z,81
2023-04-18T07:32:52.874Z,82
2023-04-18T07:33:59.607Z,81
2023-04-18T07:35:06.492Z,80
2023-04-18T07:36:13.284Z,80
2023-04-18T07:37:20.208Z,80
2023-04-18T07:38:27.079Z,80
2023-04-18T07:39:34.067Z,79
2023-04-18T07:40:40.812Z,79
2023-04-18T07:41:50.572Z,79
2023-04-18T07:43:01.614Z,79
2023-04-18T07:44:08.645Z,79
2023-04-18T07:45:15.580Z,79
2023-04-18T07:46:22.440Z,78
2023-04-18T07:47:30.508Z,79
2023-04-18T07:48:35.991Z,78
2023-04-18T07:49:42.924Z,78
2023-04-18T07:50:49.742Z,78
2023-04-18T07:51:56.596Z,77
2023-04-18T07:53:04.376Z,76
2023-04-18T07:54:13.110Z,76
2023-04-18T07:55:20.088Z,76
2023-04-18T07:56:26.804Z,75
2023-04-18T07:57:33.702Z,75
2023-04-18T07:58:40.996Z,75
2023-04-18T07:59:47.783Z,74
2023-04-18T08:00:54.671Z,74
2023-04-18T08:02:01.780Z,73
2023-04-18T08:03:08.831Z,73
2023-04-18T08:04:16.862Z,73
2023-04-18T08:05:23.622Z,72
2023-04-18T08:06:30.422Z,72
2023-04-18T08:07:37.465Z,72
2023-04-18T08:08:44.323Z,72
2023-04-18T08:09:51.307Z,72
2023-04-18T08:10:58.242Z,72
2023-04-18T08:12:05.107Z,72
2023-04-18T08:13:14.017Z,71
2023-04-18T08:14:21.006Z,72
2023-04-18T08:15:27.843Z,70
2023-04-18T08:16:34.792Z,70
2023-04-18T08:17:41.633Z,70
2023-04-18T08:18:48.834Z,71
2023-04-18T08:19:55.751Z,71
2023-04-18T08:21:02.609Z,70
2023-04-18T08:22:09.533Z,71
2023-04-18T08:23:16.542Z,70
2023-04-18T08:24:23.438Z,71
2023-04-18T08:25:30.278Z,70
2023-04-18T08:26:37.152Z,70
2023-04-18T08:27:43.985Z,70
2023-04-18T08:28:50.926Z,70
2023-04-18T08:29:58.675Z,70
2023-04-18T08:31:05.589Z,70
2023-04-18T08:32:12.395Z,69
2023-04-18T08:33:19.325Z,68
2023-04-18T08:34:26.304Z,68
2023-04-18T08:35:33.185Z,68
2023-04-18T08:36:40.011Z,68
2023-04-18T08:37:46.848Z,68
2023-04-18T08:38:53.845Z,68
2023-04-18T08:40:00.976Z,69
2023-04-18T08:41:09.152Z,69
2023-04-18T08:42:16.103Z,69
2023-04-18T08:43:22.874Z,68
2023-04-18T08:44:29.753Z,68
2023-04-18T08:45:37.783Z,67
2023-04-18T08:46:44.589Z,67
2023-04-18T08:47:51.460Z,68
2023-04-18T08:48:58.378Z,68
2023-04-18T08:50:05.317Z,66
2023-04-18T08:51:12.211Z,67
2023-04-18T08:52:19.296Z,67
2023-04-18T08:53:26.086Z,66
2023-04-18T08:54:33.071Z,67
2023-04-18T08:55:39.950Z,67
2023-04-18T08:56:46.786Z,67
2023-04-18T08:58:04.033Z,66
2023-04-18T08:59:13.777Z,65
2023-04-18T09:00:18.005Z,66
2023-04-18T09:01:25.041Z,66
2023-04-18T09:02:42.556Z,65
2023-04-18T09:03:49.199Z,64
2023-04-18T09:04:56.058Z,65
2023-04-18T09:06:02.998Z,65
2023-04-18T09:07:09.996Z,65
2023-04-18T09:08:16.822Z,65
2023-04-18T09:09:26.961Z,65
2023-04-18T09:10:46.103Z,64
2023-04-18T09:11:50.979Z,63
2023-04-18T09:13:03.224Z,63
2023-04-18T09:14:09.990Z,63
2023-04-18T09:15:27.145Z,63
2023-04-18T09:16:34.221Z,63
2023-04-18T09:17:46.208Z,61
2023-04-18T09:18:53.074Z,60
2023-04-18T09:20:10.322Z,61
2023-04-18T09:21:17.107Z,59
2023-04-18T09:22:23.934Z,60
2023-04-18T09:23:30.846Z,61
2023-04-18T09:24:37.706Z,61
2023-04-18T09:25:45.375Z,61
2023-04-18T09:26:51.436Z,61
2023-04-18T09:27:58.274Z,61
2023-04-18T09:29:05.131Z,61
2023-04-18T09:30:12.059Z,61
2023-04-18T09:31:18.923Z,61
2023-04-18T09:32:26.565Z,61
2023-04-18T09:33:33.604Z,61
2023-04-18T09:34:40.447Z,60
2023-04-18T09:35:56.623Z,60
2023-04-18T09:37:14.775Z,60
2023-04-18T09:38:21.581Z,59
2023-04-18T09:39:38.756Z,60
2023-04-18T09:40:45.690Z,59
2023-04-18T09:41:52.553Z,59
2023-04-18T09:43:01.946Z,60
2023-04-18T09:44:19.183Z,59
2023-04-18T09:45:26.036Z,59
2023-04-18T09:46:32.840Z,59
2023-04-18T09:47:39.672Z,59
2023-04-18T09:48:46.432Z,59
2023-04-18T09:49:53.254Z,58
2023-04-18T09:51:00.135Z,59
2023-04-18T09:52:09.762Z,60
2023-04-18T09:53:17.768Z,58
2023-04-18T09:54:23.391Z,57
2023-04-18T09:55:30.279Z,57
2023-04-18T09:56:37.110Z,57
2023-04-18T09:57:43.874Z,56
2023-04-18T09:58:50.669Z,56
2023-04-18T10:00:00.504Z,56
2023-04-18T10:01:07.604Z,56
2023-04-18T10:02:14.401Z,56
2023-04-18T10:03:24.330Z,57
2023-04-18T10:04:31.258Z,56
2023-04-18T10:05:37.979Z,55
2023-04-18T10:06:44.775Z,56
2023-04-18T10:07:51.605Z,55
2023-04-18T10:08:58.520Z,55
2023-04-18T10:10:08.434Z,55
2023-04-18T10:11:15.322Z,54
2023-04-18T10:12:24.351Z,55
2023-04-18T10:13:31.225Z,55
2023-04-18T10:14:38.045Z,55
2023-04-18T10:15:45.736Z,55
2023-04-18T10:16:52.587Z,56
2023-04-18T10:18:04.962Z,56
2023-04-18T10:19:06.123Z,56
2023-04-18T10:20:23.452Z,57
2023-04-18T10:21:32.934Z,57
2023-04-18T10:22:40.715Z,57
2023-04-18T10:23:47.637Z,56
2023-04-18T10:24:54.637Z,55
2023-04-18T10:26:01.546Z,54
2023-04-18T10:27:11.265Z,55
2023-04-18T10:28:21.019Z,55
2023-04-18T10:29:30.618Z,55
2023-04-18T10:30:47.867Z,55
2023-04-18T10:31:54.947Z,55
2023-04-18T10:33:01.804Z,55
2023-04-18T10:34:19.051Z,56
2023-04-18T10:35:25.808Z,55
2023-04-18T10:36:32.685Z,55
2023-04-18T10:37:39.486Z,54
2023-04-18T10:38:54.228Z,53
2023-04-18T10:40:03.925Z,53
2023-04-18T10:41:11.049Z,53
2023-04-18T10:42:17.913Z,54
2023-04-18T10:43:29.879Z,54
2023-04-18T10:44:36.719Z,54
2023-04-18T10:45:43.545Z,54
2023-04-18T10:46:50.411Z,54
2023-04-18T10:47:57.302Z,53
2023-04-18T10:49:14.819Z,54
2023-04-18T10:50:21.271Z,53
2023-04-18T10:51:30.846Z,53
2023-04-18T10:52:37.653Z,53
2023-04-18T10:53:44.571Z,54
2023-04-18T10:54:51.348Z,54
2023-04-18T10:55:58.225Z,53
2023-04-18T10:57:05.085Z,53
2023-04-18T10:58:11.873Z,53
2023-04-18T10:59:18.753Z,54
2023-04-18T11:00:25.508Z,53
2023-04-18T11:01:32.987Z,52
2023-04-18T11:02:39.375Z,52
2023-04-18T11:03:51.225Z,52
2023-04-18T11:04:58.088Z,52
2023-04-18T11:06:04.790Z,52
2023-04-18T11:07:11.830Z,52
2023-04-18T11:08:18.644Z,52
2023-04-18T11:09:28.240Z,51
2023-04-18T11:10:35.043Z,52
2023-04-18T11:11:41.935Z,51
2023-04-18T11:12:48.773Z,51
2023-04-18T11:13:55.622Z,51
2023-04-18T11:15:02.475Z,51
2023-04-18T11:16:14.666Z,51
2023-04-18T11:17:31.845Z,52
2023-04-18T11:18:41.322Z,52
2023-04-18T11:19:48.137Z,51
2023-04-18T11:20:55.125Z,52
2023-04-18T11:22:02.180Z,53
2023-04-18T11:23:08.935Z,52
2023-04-18T11:24:21.040Z,52
2023-04-18T11:25:27.861Z,51
2023-04-18T11:26:38.146Z,52
2023-04-18T11:27:45.024Z,52
2023-04-18T11:28:51.848Z,52
2023-04-18T11:30:01.534Z,51
2023-04-18T11:31:08.665Z,51
2023-04-18T11:32:15.657Z,51
2023-04-18T11:33:22.517Z,51
2023-04-18T11:34:29.367Z,50
2023-04-18T11:35:36.183Z,50
2023-04-18T11:36:46.006Z,49
2023-04-18T11:37:52.493Z,49
2023-04-18T11:38:59.414Z,50
2023-04-18T11:40:06.278Z,49
2023-04-18T11:41:13.190Z,49
2023-04-18T11:42:20.103Z,49
2023-04-18T11:43:29.504Z,49
2023-04-18T11:44:36.465Z,50
2023-04-18T11:45:43.356Z,49
2023-04-18T11:46:55.360Z,49
2023-04-18T11:48:02.300Z,49
2023-04-18T11:49:09.081Z,49
2023-04-18T11:50:36.489Z,51
2023-04-18T11:51:44.798Z,50
2023-04-18T11:52:51.720Z,50
2023-04-18T11:53:58.443Z,49
2023-04-18T11:55:05.299Z,49
2023-04-18T11:56:17.477Z,49
2023-04-18T11:57:24.260Z,49
2023-04-18T11:58:31.127Z,48
2023-04-18T11:59:37.947Z,49
2023-04-18T12:00:44.776Z,48
2023-04-18T12:01:53.076Z,48
2023-04-18T12:03:03.673Z,47
2023-04-18T12:04:10.618Z,49
2023-04-18T12:05:17.415Z,48
2023-04-18T12:06:29.203Z,47
2023-04-18T12:07:46.453Z,47
2023-04-18T12:08:54.095Z,47
2023-04-18T12:10:02.760Z,45
2023-04-18T12:11:09.943Z,45
2023-04-18T12:12:16.844Z,44
2023-04-18T12:13:23.768Z,45
2023-04-18T12:14:30.726Z,45
2023-04-18T12:15:37.678Z,45
2023-04-18T12:16:44.461Z,45
2023-04-18T12:17:54.219Z,45
2023-04-18T12:19:03.848Z,45
2023-04-18T12:20:10.692Z,45
2023-04-18T12:21:17.532Z,45
2023-04-18T12:22:24.551Z,46
2023-04-18T12:23:39.311Z,46
2023-04-18T12:24:46.545Z,46
2023-04-18T12:25:53.207Z,46
2023-04-18T12:27:05.576Z,46
2023-04-18T12:28:12.583Z,46
2023-04-18T12:29:19.457Z,46
2023-04-18T12:30:26.294Z,46
2023-04-18T12:31:33.207Z,46
2023-04-18T12:32:39.941Z,47
2023-04-18T12:33:46.789Z,48
2023-04-18T12:34:53.729Z,47
2023-04-18T12:36:00.585Z,46
2023-04-18T12:37:08.013Z,46
2023-04-18T12:38:18.176Z,46
2023-04-18T12:39:29.179Z,45
2023-04-18T12:40:36.022Z,46
2023-04-18T12:41:42.808Z,45
2023-04-18T12:42:49.684Z,45
2023-04-18T12:43:56.531Z,45
2023-04-18T12:45:03.385Z,44
2023-04-18T12:46:10.622Z,44
2023-04-18T12:47:17.460Z,44
2023-04-18T12:48:24.469Z,45
2023-04-18T12:49:31.444Z,45
2023-04-18T12:50:38.240Z,45
2023-04-18T12:51:45.069Z,45
2023-04-18T12:52:51.890Z,44
2023-04-18T12:53:58.879Z,45
2023-04-18T12:55:05.777Z,45
2023-04-18T12:56:12.831Z,46
2023-04-18T12:57:19.615Z,46
2023-04-18T12:58:26.383Z,46
2023-04-18T12:59:34.121Z,47
2023-04-18T13:00:41.030Z,45
2023-04-18T13:01:47.851Z,46
2023-04-18T13:02:54.847Z,45
2023-04-18T13:04:22.070Z,45
2023-04-18T13:05:30.839Z,45
2023-04-18T13:06:35.483Z,45
2023-04-18T13:07:42.254Z,43
2023-04-18T13:08:49.037Z,43
2023-04-18T13:09:55.806Z,43
2023-04-18T13:11:02.538Z,43
2023-04-18T13:12:09.328Z,43
2023-04-18T13:13:16.094Z,43
2023-04-18T13:14:22.940Z,43
2023-04-18T13:15:29.997Z,43
2023-04-18T13:16:36.795Z,41
2023-04-18T13:17:43.669Z,41
2023-04-18T13:18:50.443Z,41
2023-04-18T13:19:57.192Z,42
2023-04-18T13:21:04.038Z,41
2023-04-18T13:22:10.886Z,41
2023-04-18T13:23:17.755Z,41
2023-04-18T13:24:24.524Z,41
2023-04-18T13:25:31.283Z,41
2023-04-18T13:26:38.191Z,41
2023-04-18T13:27:45.189Z,41
2023-04-18T13:28:52.065Z,42
2023-04-18T13:29:58.949Z,42
2023-04-18T13:31:05.791Z,41
2023-04-18T13:32:12.766Z,42
2023-04-18T13:33:19.608Z,42
2023-04-18T13:34:26.451Z,42
2023-04-18T13:35:33.373Z,44
2023-04-18T13:36:40.286Z,42
2023-04-18T13:37:47.072Z,42
2023-04-18T13:38:54.061Z,42
2023-04-18T13:40:00.903Z,43
2023-04-18T13:42:58.669Z,42
2023-04-18T13:44:05.605Z,43
2023-04-18T13:45:12.514Z,42
2023-04-18T13:46:19.461Z,43
2023-04-18T13:47:26.415Z,43
2023-04-18T13:48:33.312Z,43
2023-04-18T13:49:41.018Z,43
2023-04-18T13:50:47.974Z,43
2023-04-18T13:51:55.836Z,43
2023-04-18T13:53:02.742Z,43
2023-04-18T13:54:09.648Z,43
2023-04-18T13:55:16.567Z,43
2023-04-18T13:56:24.428Z,43
2023-04-18T13:57:31.314Z,43
2023-04-18T13:58:38.271Z,42
2023-04-18T13:59:45.190Z,43
2023-04-18T14:00:52.127Z,43
2023-04-18T14:01:59.214Z,43
2023-04-18T14:03:06.222Z,43
2023-04-18T14:04:13.063Z,43
2023-04-18T14:05:19.821Z,43
2023-04-18T14:06:26.726Z,42
2023-04-18T14:07:33.659Z,43
2023-04-18T14:08:40.656Z,42
2023-04-18T14:09:47.514Z,42
2023-04-18T14:10:54.364Z,42
2023-04-18T14:12:01.243Z,42
2023-04-18T14:13:08.287Z,42
2023-04-18T14:14:15.271Z,42
2023-04-18T14:16:59.990Z,42
2023-04-18T14:18:06.985Z,42
2023-04-18T14:19:14.052Z,42
2023-04-18T14:20:20.717Z,42
2023-04-18T14:21:27.591Z,43
2023-04-18T14:22:34.695Z,43
2023-04-18T14:23:42.500Z,42
2023-04-18T14:24:49.428Z,43
2023-04-18T14:25:56.320Z,43
2023-04-18T14:27:03.164Z,43
2023-04-18T14:28:10.180Z,42
2023-04-18T14:29:17.164Z,42
2023-04-18T14:30:23.898Z,42
2023-04-18T14:31:30.779Z,41
2023-04-18T14:32:37.629Z,41
2023-04-18T14:33:44.561Z,41
2023-04-18T14:34:51.517Z,41
2023-04-18T14:35:58.340Z,41
2023-04-18T14:37:05.276Z,41
2023-04-18T14:38:12.194Z,42
2023-04-18T14:39:19.118Z,42
2023-04-18T14:40:26.076Z,42
2023-04-18T14:41:32.960Z,42
2023-04-18T14:42:39.797Z,42
2023-04-18T14:43:46.600Z,42
2023-04-18T14:44:53.491Z,42
2023-04-18T14:46:00.451Z,42
2023-04-18T14:47:07.399Z,43
2023-04-18T14:48:14.257Z,43
2023-04-18T14:49:21.202Z,43
2023-04-18T14:50:28.103Z,44
2023-04-18T14:51:35.085Z,44
2023-04-18T14:52:42.840Z,44
2023-04-18T14:53:49.714Z,44
2023-04-18T14:54:57.488Z,45
2023-04-18T14:56:04.306Z,44
2023-04-18T14:57:11.189Z,44
2023-04-18T14:58:18.187Z,44
2023-04-18T14:59:24.999Z,44
2023-04-18T15:00:31.838Z,44
2023-04-18T15:01:38.730Z,45
2023-04-18T15:02:46.694Z,45
2023-04-18T15:03:53.633Z,45
2023-04-18T15:05:00.342Z,45
2023-04-18T15:06:07.174Z,45
2023-04-18T15:07:14.128Z,45
2023-04-18T15:08:20.964Z,46
2023-04-18T15:09:27.942Z,45
2023-04-18T15:10:34.992Z,45
2023-04-18T15:11:41.906Z,46
2023-04-18T15:12:49.977Z,46
2023-04-18T15:13:56.865Z,46
2023-04-18T15:15:03.822Z,46
2023-04-18T15:16:11.152Z,46
2023-04-18T15:17:17.845Z,46
2023-04-18T15:18:24.756Z,47
2023-04-18T15:19:31.761Z,46
2023-04-18T15:20:38.635Z,46
2023-04-18T15:21:45.601Z,46
2023-04-18T15:22:52.602Z,47
2023-04-18T15:23:59.413Z,46
2023-04-18T15:25:06.432Z,46
2023-04-18T15:26:13.370Z,46
2023-04-18T15:27:21.157Z,47
2023-04-18T15:28:28.158Z,47
2023-04-18T15:29:35.022Z,47
2023-04-18T15:30:41.892Z,47
2023-04-18T15:31:48.757Z,46
2023-04-18T15:32:55.683Z,46
2023-04-18T15:34:02.625Z,46
2023-04-18T15:35:09.780Z,46
2023-04-18T15:36:16.774Z,46
2023-04-18T15:37:23.694Z,46
2023-04-18T15:38:32.812Z,46
2023-04-18T15:39:38.249Z,46
2023-04-18T15:40:45.295Z,46
2023-04-18T15:41:52.131Z,46
2023-04-18T15:42:59.058Z,46
2023-04-18T15:44:07.775Z,46
2023-04-18T15:45:13.326Z,46
2023-04-18T15:46:20.427Z,46
2023-04-18T15:47:27.442Z,46
2023-04-18T15:48:34.397Z,46
2023-04-18T15:49:41.263Z,47
2023-04-18T15:50:48.219Z,46
2023-04-18T15:51:55.146Z,46
2023-04-18T15:53:02.210Z,46
2023-04-18T15:54:09.044Z,47
2023-04-18T15:55:15.903Z,47
2023-04-18T15:56:22.720Z,48
2023-04-18T15:57:32.353Z,47
2023-04-18T15:58:39.315Z,48
2023-04-18T15:59:46.174Z,48
2023-04-18T16:00:53.138Z,48
2023-04-18T16:02:00.109Z,48
2023-04-18T16:03:07.033Z,48
2023-04-18T16:04:14.300Z,49
2023-04-18T16:05:20.966Z,48
2023-04-18T16:06:27.890Z,49